sensor_id;sensor_type;location;lat;lon;timestamp;pressure;altitude;pressure_sealevel;temperature;humidity
14117;BME280;7137;51.436;6.544;2024-03-02T00:01:23;99595.97;;;8.27;81.86
14117;BME280;7137;51.436;6.544;2024-03-02T00:04:25;99587.19;;;8.29;82.04
14117;BME280;7137;51.436;6.544;2024-03-02T00:07:26;99585.56;;;8.27;82.10
14117;BME280;7137;51.436;6.544;2024-03-02T00:10:36;99576.78;;;8.29;81.68
14117;BME280;7137;51.436;6.544;2024-03-02T00:13:39;99570.75;;;8.29;81.80
14117;BME280;7137;51.436;6.544;2024-03-02T00:16:42;99576.53;;;8.37;81.17
14117;BME280;7137;51.436;6.544;2024-03-02T00:19:44;99571.81;;;8.47;81.25
14117;BME280;7137;51.436;6.544;2024-03-02T00:22:46;99574.97;;;8.53;80.57
14117;BME280;7137;51.436;6.544;2024-03-02T00:25:49;99574.84;;;8.56;80.38
14117;BME280;7137;51.436;6.544;2024-03-02T00:28:54;99583.84;;;8.70;80.73
14117;BME280;7137;51.436;6.544;2024-03-02T00:31:58;99578.56;;;8.71;80.13
14117;BME280;7137;51.436;6.544;2024-03-02T00:35:04;99585.16;;;8.80;79.33
14117;BME280;7137;51.436;6.544;2024-03-02T00:38:06;99581.50;;;8.84;79.71
14117;BME280;7137;51.436;6.544;2024-03-02T00:41:09;99578.56;;;8.91;79.73
14117;BME280;7137;51.436;6.544;2024-03-02T00:44:19;99576.66;;;8.95;78.39
14117;BME280;7137;51.436;6.544;2024-03-02T00:47:24;99581.75;;;8.98;79.26
14117;BME280;7137;51.436;6.544;2024-03-02T00:50:26;99571.94;;;9.05;78.18
14117;BME280;7137;51.436;6.544;2024-03-02T00:53:27;99583.13;;;9.07;78.74
14117;BME280;7137;51.436;6.544;2024-03-02T00:56:29;99586.28;;;9.13;77.89
14117;BME280;7137;51.436;6.544;2024-03-02T00:59:31;99580.97;;;9.16;77.08
14117;BME280;7137;51.436;6.544;2024-03-02T01:02:34;99583.28;;;9.22;77.98
14117;BME280;7137;51.436;6.544;2024-03-02T01:05:36;99581.53;;;9.23;78.24
14117;BME280;7137;51.436;6.544;2024-03-02T01:08:38;99578.16;;;9.21;78.48
14117;BME280;7137;51.436;6.544;2024-03-02T01:11:39;99584.97;;;9.23;77.32
14117;BME280;7137;51.436;6.544;2024-03-02T01:14:41;99591.31;;;9.18;77.46
14117;BME280;7137;51.436;6.544;2024-03-02T01:17:44;99587.38;;;9.28;76.70
14117;BME280;7137;51.436;6.544;2024-03-02T01:20:45;99583.00;;;9.29;77.52
14117;BME280;7137;51.436;6.544;2024-03-02T01:23:47;99582.81;;;9.33;76.80
14117;BME280;7137;51.436;6.544;2024-03-02T01:26:48;99581.28;;;9.29;76.67
14117;BME280;7137;51.436;6.544;2024-03-02T01:29:50;99575.41;;;9.24;77.48
14117;BME280;7137;51.436;6.544;2024-03-02T01:32:53;99576.84;;;9.11;78.25
14117;BME280;7137;51.436;6.544;2024-03-02T01:35:55;99577.56;;;9.14;77.13
14117;BME280;7137;51.436;6.544;2024-03-02T01:38:56;99575.41;;;9.24;76.59
14117;BME280;7137;51.436;6.544;2024-03-02T01:41:58;99580.22;;;9.33;76.32
14117;BME280;7137;51.436;6.544;2024-03-02T01:44:59;99579.78;;;9.42;76.58
14117;BME280;7137;51.436;6.544;2024-03-02T01:48:03;99586.50;;;9.48;76.17
14117;BME280;7137;51.436;6.544;2024-03-02T01:51:05;99582.91;;;9.50;75.21
14117;BME280;7137;51.436;6.544;2024-03-02T01:54:07;99589.03;;;9.49;75.52
14117;BME280;7137;51.436;6.544;2024-03-02T01:57:09;99587.13;;;9.53;75.13
14117;BME280;7137;51.436;6.544;2024-03-02T02:00:11;99586.09;;;9.57;74.37
14117;BME280;7137;51.436;6.544;2024-03-02T02:03:14;99587.13;;;9.53;74.67
14117;BME280;7137;51.436;6.544;2024-03-02T02:06:16;99590.66;;;9.52;74.16
14117;BME280;7137;51.436;6.544;2024-03-02T02:09:17;99592.16;;;9.58;73.91
14117;BME280;7137;51.436;6.544;2024-03-02T02:12:19;99591.50;;;9.52;74.28
14117;BME280;7137;51.436;6.544;2024-03-02T02:15:24;99597.53;;;9.53;76.00
14117;BME280;7137;51.436;6.544;2024-03-02T02:18:27;99598.19;;;9.58;76.14
14117;BME280;7137;51.436;6.544;2024-03-02T02:21:30;99595.09;;;9.50;75.81
14117;BME280;7137;51.436;6.544;2024-03-02T02:24:32;99596.63;;;9.54;75.79
14117;BME280;7137;51.436;6.544;2024-03-02T02:27:33;99613.03;;;9.56;76.80
14117;BME280;7137;51.436;6.544;2024-03-02T02:30:36;99609.56;;;9.57;75.32
14117;BME280;7137;51.436;6.544;2024-03-02T02:33:39;99608.41;;;9.63;76.03
14117;BME280;7137;51.436;6.544;2024-03-02T02:36:42;99610.09;;;9.64;75.80
14117;BME280;7137;51.436;6.544;2024-03-02T02:39:44;99603.13;;;9.64;74.94
14117;BME280;7137;51.436;6.544;2024-03-02T02:42:47;99594.31;;;9.67;75.89
14117;BME280;7137;51.436;6.544;2024-03-02T02:45:48;99605.28;;;9.55;75.83
14117;BME280;7137;51.436;6.544;2024-03-02T02:48:50;99608.13;;;9.50;75.96
14117;BME280;7137;51.436;6.544;2024-03-02T02:51:54;99620.00;;;9.56;75.78
14117;BME280;7137;51.436;6.544;2024-03-02T02:54:56;99615.53;;;9.59;76.62
14117;BME280;7137;51.436;6.544;2024-03-02T02:57:57;99615.25;;;9.65;76.56
14117;BME280;7137;51.436;6.544;2024-03-02T03:00:59;99625.44;;;9.51;76.33
14117;BME280;7137;51.436;6.544;2024-03-02T03:04:00;99617.47;;;9.54;77.78
14117;BME280;7137;51.436;6.544;2024-03-02T03:07:04;99616.00;;;9.67;78.46
14117;BME280;7137;51.436;6.544;2024-03-02T03:10:07;99613.25;;;9.70;77.47
14117;BME280;7137;51.436;6.544;2024-03-02T03:13:08;99611.56;;;9.69;76.92
14117;BME280;7137;51.436;6.544;2024-03-02T03:16:10;99606.25;;;9.72;76.85
14117;BME280;7137;51.436;6.544;2024-03-02T03:19:11;99616.09;;;9.66;76.78
14117;BME280;7137;51.436;6.544;2024-03-02T03:22:15;99616.84;;;9.68;77.46
14117;BME280;7137;51.436;6.544;2024-03-02T03:25:16;99628.28;;;9.46;79.22
14117;BME280;7137;51.436;6.544;2024-03-02T03:28:18;99621.22;;;9.48;81.64
14117;BME280;7137;51.436;6.544;2024-03-02T03:31:19;99624.78;;;9.07;83.91
14117;BME280;7137;51.436;6.544;2024-03-02T03:34:21;99629.16;;;9.06;85.54
14117;BME280;7137;51.436;6.544;2024-03-02T03:37:24;99617.78;;;8.88;86.42
14117;BME280;7137;51.436;6.544;2024-03-02T03:40:32;99610.47;;;8.97;86.30
14117;BME280;7137;51.436;6.544;2024-03-02T03:43:34;99611.50;;;8.92;86.08
14117;BME280;7137;51.436;6.544;2024-03-02T03:46:36;99601.81;;;8.96;85.83
14117;BME280;7137;51.436;6.544;2024-03-02T03:49:38;99596.03;;;8.89;84.99
14117;BME280;7137;51.436;6.544;2024-03-02T03:52:41;99601.22;;;8.89;85.43
14117;BME280;7137;51.436;6.544;2024-03-02T03:55:42;99615.03;;;8.91;85.17
14117;BME280;7137;51.436;6.544;2024-03-02T03:58:46;99616.19;;;9.05;84.92
14117;BME280;7137;51.436;6.544;2024-03-02T04:01:48;99609.38;;;9.02;84.78
14117;BME280;7137;51.436;6.544;2024-03-02T04:04:50;99614.38;;;9.07;85.79
14117;BME280;7137;51.436;6.544;2024-03-02T04:07:53;99611.06;;;9.03;85.46
14117;BME280;7137;51.436;6.544;2024-03-02T04:10:54;99605.06;;;9.01;84.26
14117;BME280;7137;51.436;6.544;2024-03-02T04:13:56;99604.84;;;8.85;84.66
14117;BME280;7137;51.436;6.544;2024-03-02T04:16:57;99609.22;;;8.85;84.83
14117;BME280;7137;51.436;6.544;2024-03-02T04:19:59;99608.50;;;8.81;85.78
14117;BME280;7137;51.436;6.544;2024-03-02T04:23:02;99615.97;;;8.69;86.43
14117;BME280;7137;51.436;6.544;2024-03-02T04:26:04;99613.31;;;8.70;85.77
14117;BME280;7137;51.436;6.544;2024-03-02T04:29:05;99625.41;;;8.71;85.82
14117;BME280;7137;51.436;6.544;2024-03-02T04:32:07;99621.97;;;8.71;86.44
14117;BME280;7137;51.436;6.544;2024-03-02T04:35:08;99625.13;;;8.79;85.84
14117;BME280;7137;51.436;6.544;2024-03-02T04:38:11;99632.59;;;8.86;85.67
14117;BME280;7137;51.436;6.544;2024-03-02T04:41:13;99638.59;;;8.88;85.51
14117;BME280;7137;51.436;6.544;2024-03-02T04:44:15;99645.81;;;8.82;86.18
14117;BME280;7137;51.436;6.544;2024-03-02T04:47:16;99649.13;;;8.85;86.40
14117;BME280;7137;51.436;6.544;2024-03-02T04:50:18;99644.06;;;8.82;85.82
14117;BME280;7137;51.436;6.544;2024-03-02T04:53:21;99639.81;;;8.80;86.62
14117;BME280;7137;51.436;6.544;2024-03-02T04:56:22;99640.03;;;8.75;85.82
14117;BME280;7137;51.436;6.544;2024-03-02T04:59:49;99650.81;;;8.66;86.64
14117;BME280;7137;51.436;6.544;2024-03-02T05:02:51;99648.63;;;8.55;86.87
14117;BME280;7137;51.436;6.544;2024-03-02T05:05:52;99649.88;;;8.47;87.10
14117;BME280;7137;51.436;6.544;2024-03-02T05:08:55;99652.69;;;8.41;87.72
14117;BME280;7137;51.436;6.544;2024-03-02T05:11:57;99650.38;;;8.33;87.70
14117;BME280;7137;51.436;6.544;2024-03-02T05:15:23;99640.13;;;8.28;88.11
14117;BME280;7137;51.436;6.544;2024-03-02T05:18:24;99646.31;;;8.26;88.57
14117;BME280;7137;51.436;6.544;2024-03-02T05:21:26;99646.91;;;8.34;88.23
14117;BME280;7137;51.436;6.544;2024-03-02T05:24:28;99648.06;;;8.25;88.74
14117;BME280;7137;51.436;6.544;2024-03-02T05:27:30;99652.75;;;8.17;89.44
14117;BME280;7137;51.436;6.544;2024-03-02T05:30:33;99647.75;;;8.11;89.65
14117;BME280;7137;51.436;6.544;2024-03-02T05:33:34;99642.81;;;8.05;90.09
14117;BME280;7137;51.436;6.544;2024-03-02T05:36:36;99655.13;;;8.00;90.35
14117;BME280;7137;51.436;6.544;2024-03-02T05:39:40;99642.97;;;8.00;90.53
14117;BME280;7137;51.436;6.544;2024-03-02T05:42:43;99633.66;;;7.95;90.21
14117;BME280;7137;51.436;6.544;2024-03-02T05:45:45;99653.50;;;7.97;90.47
14117;BME280;7137;51.436;6.544;2024-03-02T05:48:46;99651.78;;;7.96;90.66
14117;BME280;7137;51.436;6.544;2024-03-02T05:51:48;99653.44;;;7.99;90.97
14117;BME280;7137;51.436;6.544;2024-03-02T05:54:51;99656.16;;;7.96;90.79
14117;BME280;7137;51.436;6.544;2024-03-02T05:57:52;99665.13;;;7.87;90.91
14117;BME280;7137;51.436;6.544;2024-03-02T06:01:11;99661.94;;;7.81;91.83
14117;BME280;7137;51.436;6.544;2024-03-02T06:04:13;99661.97;;;7.79;91.34
14117;BME280;7137;51.436;6.544;2024-03-02T06:07:15;99670.75;;;7.77;91.88
14117;BME280;7137;51.436;6.544;2024-03-02T06:10:18;99664.66;;;7.78;91.42
14117;BME280;7137;51.436;6.544;2024-03-02T06:13:21;99658.69;;;7.74;91.15
14117;BME280;7137;51.436;6.544;2024-03-02T06:16:22;99665.94;;;7.89;91.04
14117;BME280;7137;51.436;6.544;2024-03-02T06:19:24;99660.63;;;7.92;90.76
14117;BME280;7137;51.436;6.544;2024-03-02T06:22:26;99659.06;;;7.88;90.26
14117;BME280;7137;51.436;6.544;2024-03-02T06:25:28;99664.19;;;7.90;90.61
14117;BME280;7137;51.436;6.544;2024-03-02T06:28:30;99670.06;;;7.95;89.99
14117;BME280;7137;51.436;6.544;2024-03-02T06:31:31;99678.53;;;8.00;90.45
14117;BME280;7137;51.436;6.544;2024-03-02T06:34:33;99687.97;;;8.02;89.18
14117;BME280;7137;51.436;6.544;2024-03-02T06:37:36;99696.66;;;8.01;89.57
14117;BME280;7137;51.436;6.544;2024-03-02T06:40:39;99706.06;;;8.06;88.93
14117;BME280;7137;51.436;6.544;2024-03-02T06:43:41;99711.72;;;8.17;89.30
14117;BME280;7137;51.436;6.544;2024-03-02T06:46:42;99704.84;;;8.14;88.23
14117;BME280;7137;51.436;6.544;2024-03-02T06:49:44;99712.50;;;8.19;87.80
14117;BME280;7137;51.436;6.544;2024-03-02T06:52:45;99714.72;;;8.28;87.69
14117;BME280;7137;51.436;6.544;2024-03-02T06:55:48;99725.19;;;8.26;87.74
14117;BME280;7137;51.436;6.544;2024-03-02T06:58:50;99718.84;;;8.35;87.42
14117;BME280;7137;51.436;6.544;2024-03-02T07:01:52;99708.56;;;8.54;86.49
14117;BME280;7137;51.436;6.544;2024-03-02T07:04:53;99717.06;;;8.59;86.81
14117;BME280;7137;51.436;6.544;2024-03-02T07:07:55;99720.66;;;8.77;86.06
14117;BME280;7137;51.436;6.544;2024-03-02T07:10:58;99728.22;;;8.83;85.19
14117;BME280;7137;51.436;6.544;2024-03-02T07:13:59;99723.28;;;8.97;84.59
14117;BME280;7137;51.436;6.544;2024-03-02T07:17:02;99722.50;;;9.17;85.10
14117;BME280;7137;51.436;6.544;2024-03-02T07:20:04;99731.94;;;9.19;84.18
14117;BME280;7137;51.436;6.544;2024-03-02T07:23:06;99731.78;;;9.02;83.79
14117;BME280;7137;51.436;6.544;2024-03-02T07:26:10;99735.75;;;9.11;84.27
14117;BME280;7137;51.436;6.544;2024-03-02T07:29:12;99732.78;;;9.20;83.23
14117;BME280;7137;51.436;6.544;2024-03-02T07:32:13;99734.94;;;9.31;82.49
14117;BME280;7137;51.436;6.544;2024-03-02T07:35:15;99738.38;;;9.51;81.83
14117;BME280;7137;51.436;6.544;2024-03-02T07:38:18;99733.28;;;9.69;81.18
14117;BME280;7137;51.436;6.544;2024-03-02T07:41:21;99740.44;;;9.84;81.95
14117;BME280;7137;51.436;6.544;2024-03-02T07:44:22;99740.19;;;9.70;80.60
14117;BME280;7137;51.436;6.544;2024-03-02T07:47:24;99745.53;;;9.67;80.15
14117;BME280;7137;51.436;6.544;2024-03-02T07:50:26;99750.63;;;9.70;80.71
14117;BME280;7137;51.436;6.544;2024-03-02T07:53:27;99762.25;;;9.63;80.71
14117;BME280;7137;51.436;6.544;2024-03-02T07:56:30;99763.66;;;9.49;81.59
14117;BME280;7137;51.436;6.544;2024-03-02T07:59:32;99776.56;;;10.12;80.78
14117;BME280;7137;51.436;6.544;2024-03-02T08:02:34;99782.19;;;10.80;76.11
14117;BME280;7137;51.436;6.544;2024-03-02T08:05:35;99785.06;;;11.80;70.01
14117;BME280;7137;51.436;6.544;2024-03-02T08:08:37;99783.81;;;11.18;72.20
14117;BME280;7137;51.436;6.544;2024-03-02T08:11:40;99782.34;;;11.82;69.44
14117;BME280;7137;51.436;6.544;2024-03-02T08:14:41;99789.09;;;13.89;62.03
14117;BME280;7137;51.436;6.544;2024-03-02T08:17:44;99795.66;;;13.06;64.81
14117;BME280;7137;51.436;6.544;2024-03-02T08:20:48;99796.41;;;13.84;59.54
14117;BME280;7137;51.436;6.544;2024-03-02T08:23:50;99790.22;;;13.71;62.09
14117;BME280;7137;51.436;6.544;2024-03-02T08:26:53;99796.34;;;12.94;62.68
14117;BME280;7137;51.436;6.544;2024-03-02T08:29:54;99791.38;;;12.09;67.12
14117;BME280;7137;51.436;6.544;2024-03-02T08:32:56;99777.25;;;13.24;63.71
14117;BME280;7137;51.436;6.544;2024-03-02T08:35:58;99781.25;;;14.88;57.35
14117;BME280;7137;51.436;6.544;2024-03-02T08:38:59;99774.34;;;15.66;54.22
14117;BME280;7137;51.436;6.544;2024-03-02T08:42:02;99776.44;;;16.24;51.57
14117;BME280;7137;51.436;6.544;2024-03-02T08:45:06;99778.69;;;16.80;51.57
14117;BME280;7137;51.436;6.544;2024-03-02T08:48:08;99786.47;;;18.22;47.61
14117;BME280;7137;51.436;6.544;2024-03-02T08:51:10;99791.25;;;18.84;44.49
14117;BME280;7137;51.436;6.544;2024-03-02T08:54:11;99782.78;;;17.08;48.23
14117;BME280;7137;51.436;6.544;2024-03-02T08:57:14;99785.69;;;17.75;47.88
14117;BME280;7137;51.436;6.544;2024-03-02T09:00:16;99790.47;;;16.38;51.95
14117;BME280;7137;51.436;6.544;2024-03-02T09:03:18;99786.47;;;16.19;52.59
14117;BME280;7137;51.436;6.544;2024-03-02T09:06:20;99784.56;;;15.70;52.11
14117;BME280;7137;51.436;6.544;2024-03-02T09:09:22;99781.72;;;16.12;51.97
14117;BME280;7137;51.436;6.544;2024-03-02T09:12:25;99780.78;;;15.87;52.59
14117;BME280;7137;51.436;6.544;2024-03-02T09:15:26;99786.59;;;15.92;52.49
14117;BME280;7137;51.436;6.544;2024-03-02T09:18:28;99783.78;;;15.56;54.07
14117;BME280;7137;51.436;6.544;2024-03-02T09:21:29;99788.78;;;15.73;51.51
14117;BME280;7137;51.436;6.544;2024-03-02T09:24:31;99791.03;;;15.92;51.17
14117;BME280;7137;51.436;6.544;2024-03-02T09:27:37;99777.03;;;15.52;53.51
14117;BME280;7137;51.436;6.544;2024-03-02T09:30:38;99785.69;;;15.54;55.67
14117;BME280;7137;51.436;6.544;2024-03-02T09:33:40;99791.09;;;15.65;54.10
14117;BME280;7137;51.436;6.544;2024-03-02T09:36:41;99786.47;;;15.02;55.98
14117;BME280;7137;51.436;6.544;2024-03-02T09:39:43;99789.03;;;14.89;56.35
14117;BME280;7137;51.436;6.544;2024-03-02T09:42:46;99781.28;;;15.27;54.39
14117;BME280;7137;51.436;6.544;2024-03-02T09:45:53;99778.22;;;15.21;54.64
14117;BME280;7137;51.436;6.544;2024-03-02T09:48:54;99771.38;;;15.18;56.63
14117;BME280;7137;51.436;6.544;2024-03-02T09:51:56;99776.53;;;15.59;54.30
14117;BME280;7137;51.436;6.544;2024-03-02T09:54:58;99776.44;;;15.21;56.19
14117;BME280;7137;51.436;6.544;2024-03-02T09:58:01;99775.19;;;15.27;52.77
14117;BME280;7137;51.436;6.544;2024-03-02T10:01:05;99763.31;;;14.39;55.82
14117;BME280;7137;51.436;6.544;2024-03-02T10:04:07;99763.75;;;14.60;55.96
14117;BME280;7137;51.436;6.544;2024-03-02T10:07:10;99769.50;;;14.38;55.94
14117;BME280;7137;51.436;6.544;2024-03-02T10:10:14;99771.03;;;14.83;58.04
14117;BME280;7137;51.436;6.544;2024-03-02T10:13:17;99766.13;;;14.64;54.80
14117;BME280;7137;51.436;6.544;2024-03-02T10:16:18;99781.31;;;14.59;55.77
14117;BME280;7137;51.436;6.544;2024-03-02T10:19:21;99774.94;;;14.35;55.83
14117;BME280;7137;51.436;6.544;2024-03-02T10:22:23;99777.00;;;14.30;55.69
14117;BME280;7137;51.436;6.544;2024-03-02T10:25:31;99776.91;;;14.31;56.20
14117;BME280;7137;51.436;6.544;2024-03-02T10:28:34;99771.38;;;14.64;57.43
14117;BME280;7137;51.436;6.544;2024-03-02T10:31:37;99780.38;;;14.60;57.23
14117;BME280;7137;51.436;6.544;2024-03-02T10:34:40;99781.59;;;14.69;56.40
14117;BME280;7137;51.436;6.544;2024-03-02T10:37:42;99771.66;;;14.60;56.67
14117;BME280;7137;51.436;6.544;2024-03-02T10:40:46;99764.63;;;14.46;55.61
14117;BME280;7137;51.436;6.544;2024-03-02T10:43:51;99758.72;;;14.00;55.93
14117;BME280;7137;51.436;6.544;2024-03-02T10:46:56;99758.34;;;13.91;56.60
14117;BME280;7137;51.436;6.544;2024-03-02T10:49:59;99756.00;;;13.73;55.62
14117;BME280;7137;51.436;6.544;2024-03-02T10:53:03;99750.75;;;14.15;56.20
14117;BME280;7137;51.436;6.544;2024-03-02T10:56:07;99739.50;;;13.99;53.90
14117;BME280;7137;51.436;6.544;2024-03-02T10:59:17;99745.69;;;13.84;53.90
14117;BME280;7137;51.436;6.544;2024-03-02T11:02:24;99746.00;;;13.93;54.22
14117;BME280;7137;51.436;6.544;2024-03-02T11:05:27;99739.31;;;13.88;53.72
14117;BME280;7137;51.436;6.544;2024-03-02T11:08:30;99740.16;;;14.03;53.98
14117;BME280;7137;51.436;6.544;2024-03-02T11:11:36;99726.06;;;14.32;54.38
14117;BME280;7137;51.436;6.544;2024-03-02T11:14:41;99730.19;;;14.50;53.71
14117;BME280;7137;51.436;6.544;2024-03-02T11:17:44;99718.69;;;14.93;55.15
14117;BME280;7137;51.436;6.544;2024-03-02T11:20:47;99730.28;;;15.03;53.31
14117;BME280;7137;51.436;6.544;2024-03-02T11:23:49;99730.34;;;14.89;52.19
14117;BME280;7137;51.436;6.544;2024-03-02T11:26:51;99726.81;;;15.02;51.96
14117;BME280;7137;51.436;6.544;2024-03-02T11:29:54;99726.03;;;15.27;53.68
14117;BME280;7137;51.436;6.544;2024-03-02T11:32:56;99720.91;;;15.51;54.19
14117;BME280;7137;51.436;6.544;2024-03-02T11:35:57;99724.84;;;15.84;51.47
14117;BME280;7137;51.436;6.544;2024-03-02T11:39:00;99731.22;;;15.41;51.76
14117;BME280;7137;51.436;6.544;2024-03-02T11:42:03;99713.63;;;15.42;53.22
14117;BME280;7137;51.436;6.544;2024-03-02T11:45:09;99719.47;;;15.72;54.33
14117;BME280;7137;51.436;6.544;2024-03-02T11:48:13;99727.91;;;15.65;51.51
14117;BME280;7137;51.436;6.544;2024-03-02T11:51:16;99720.81;;;16.03;52.98
14117;BME280;7137;51.436;6.544;2024-03-02T11:54:17;99715.53;;;16.16;53.24
14117;BME280;7137;51.436;6.544;2024-03-02T11:57:20;99707.97;;;15.99;54.25
14117;BME280;7137;51.436;6.544;2024-03-02T12:00:24;99705.78;;;15.80;51.71
14117;BME280;7137;51.436;6.544;2024-03-02T12:03:25;99700.31;;;15.05;54.08
14117;BME280;7137;51.436;6.544;2024-03-02T12:06:28;99708.47;;;15.28;54.31
14117;BME280;7137;51.436;6.544;2024-03-02T12:09:30;99700.44;;;15.17;54.04
14117;BME280;7137;51.436;6.544;2024-03-02T12:12:32;99694.09;;;14.94;55.50
14117;BME280;7137;51.436;6.544;2024-03-02T12:15:36;99688.00;;;14.66;55.65
14117;BME280;7137;51.436;6.544;2024-03-02T12:18:38;99676.59;;;14.39;56.13
14117;BME280;7137;51.436;6.544;2024-03-02T12:21:41;99682.25;;;14.18;54.69
14117;BME280;7137;51.436;6.544;2024-03-02T12:24:43;99687.78;;;14.28;54.92
14117;BME280;7137;51.436;6.544;2024-03-02T12:27:45;99672.28;;;14.38;54.41
14117;BME280;7137;51.436;6.544;2024-03-02T12:30:49;99673.28;;;14.49;54.32
14117;BME280;7137;51.436;6.544;2024-03-02T12:33:51;99669.56;;;14.53;53.80
14117;BME280;7137;51.436;6.544;2024-03-02T12:36:52;99660.03;;;14.65;53.86
14117;BME280;7137;51.436;6.544;2024-03-02T12:39:54;99663.59;;;14.64;53.46
14117;BME280;7137;51.436;6.544;2024-03-02T12:42:55;99656.34;;;14.68;52.67
14117;BME280;7137;51.436;6.544;2024-03-02T12:45:59;99646.75;;;14.94;53.52
14117;BME280;7137;51.436;6.544;2024-03-02T12:49:08;99646.84;;;14.92;53.17
14117;BME280;7137;51.436;6.544;2024-03-02T12:52:11;99640.88;;;15.15;53.90
14117;BME280;7137;51.436;6.544;2024-03-02T12:55:13;99649.47;;;15.05;52.66
14117;BME280;7137;51.436;6.544;2024-03-02T12:58:19;99645.28;;;15.15;52.74
14117;BME280;7137;51.436;6.544;2024-03-02T13:01:22;99651.38;;;15.03;51.36
14117;BME280;7137;51.436;6.544;2024-03-02T13:04:24;99648.34;;;14.96;52.52
14117;BME280;7137;51.436;6.544;2024-03-02T13:07:27;99644.13;;;14.94;52.67
14117;BME280;7137;51.436;6.544;2024-03-02T13:10:28;99644.13;;;14.94;53.30
14117;BME280;7137;51.436;6.544;2024-03-02T13:13:30;99644.66;;;14.99;52.34
14117;BME280;7137;51.436;6.544;2024-03-02T13:16:38;99625.69;;;14.81;53.36
14117;BME280;7137;51.436;6.544;2024-03-02T13:19:43;99624.72;;;14.69;53.30
14117;BME280;7137;51.436;6.544;2024-03-02T13:22:51;99626.22;;;14.86;53.00
14117;BME280;7137;51.436;6.544;2024-03-02T13:25:53;99629.28;;;14.93;52.55
14117;BME280;7137;51.436;6.544;2024-03-02T13:28:55;99625.91;;;15.03;52.27
14117;BME280;7137;51.436;6.544;2024-03-02T13:31:57;99621.94;;;14.98;53.43
14117;BME280;7137;51.436;6.544;2024-03-02T13:34:59;99617.94;;;14.92;52.83
14117;BME280;7137;51.436;6.544;2024-03-02T13:38:01;99621.94;;;15.23;53.51
14117;BME280;7137;51.436;6.544;2024-03-02T13:41:02;99621.13;;;15.23;53.83
14117;BME280;7137;51.436;6.544;2024-03-02T13:44:04;99621.41;;;15.31;53.19
14117;BME280;7137;51.436;6.544;2024-03-02T13:47:07;99613.84;;;15.39;52.48
14117;BME280;7137;51.436;6.544;2024-03-02T13:50:09;99613.28;;;15.47;54.29
14117;BME280;7137;51.436;6.544;2024-03-02T13:53:11;99607.31;;;15.44;53.43
14117;BME280;7137;51.436;6.544;2024-03-02T13:56:12;99607.72;;;15.51;53.78
14117;BME280;7137;51.436;6.544;2024-03-02T13:59:14;99602.78;;;15.59;52.65
14117;BME280;7137;51.436;6.544;2024-03-02T14:02:17;99605.94;;;15.52;55.54
14117;BME280;7137;51.436;6.544;2024-03-02T14:05:18;99604.25;;;15.51;54.28
14117;BME280;7137;51.436;6.544;2024-03-02T14:08:20;99600.69;;;15.39;54.95
14117;BME280;7137;51.436;6.544;2024-03-02T14:11:22;99600.47;;;15.29;55.38
14117;BME280;7137;51.436;6.544;2024-03-02T14:14:23;99604.38;;;15.36;54.30
14117;BME280;7137;51.436;6.544;2024-03-02T14:17:26;99593.13;;;15.34;54.85
14117;BME280;7137;51.436;6.544;2024-03-02T14:20:28;99587.53;;;15.26;53.63
14117;BME280;7137;51.436;6.544;2024-03-02T14:23:29;99587.31;;;15.29;55.55
14117;BME280;7137;51.436;6.544;2024-03-02T14:26:31;99577.34;;;15.09;54.48
14117;BME280;7137;51.436;6.544;2024-03-02T14:29:33;99580.81;;;15.09;54.99
14117;BME280;7137;51.436;6.544;2024-03-02T14:32:39;99569.97;;;15.27;55.17
14117;BME280;7137;51.436;6.544;2024-03-02T14:35:40;99572.38;;;15.17;56.04
14117;BME280;7137;51.436;6.544;2024-03-02T14:38:42;99574.25;;;14.90;54.73
14117;BME280;7137;51.436;6.544;2024-03-02T14:41:43;99579.09;;;14.83;56.19
14117;BME280;7137;51.436;6.544;2024-03-02T14:44:45;99580.78;;;14.84;56.55
14117;BME280;7137;51.436;6.544;2024-03-02T14:47:48;99578.56;;;14.78;56.77
14117;BME280;7137;51.436;6.544;2024-03-02T14:50:50;99578.38;;;14.81;55.78
14117;BME280;7137;51.436;6.544;2024-03-02T14:53:52;99569.63;;;14.80;56.90
14117;BME280;7137;51.436;6.544;2024-03-02T14:56:53;99563.06;;;14.61;58.58
14117;BME280;7137;51.436;6.544;2024-03-02T14:59:57;99567.28;;;14.63;58.14
14117;BME280;7137;51.436;6.544;2024-03-02T15:03:00;99567.69;;;14.57;57.76
14117;BME280;7137;51.436;6.544;2024-03-02T15:06:01;99568.56;;;14.70;57.11
14117;BME280;7137;51.436;6.544;2024-03-02T15:09:04;99562.91;;;14.89;56.56
14117;BME280;7137;51.436;6.544;2024-03-02T15:12:07;99557.25;;;15.08;57.01
14117;BME280;7137;51.436;6.544;2024-03-02T15:15:10;99554.78;;;15.05;55.38
14117;BME280;7137;51.436;6.544;2024-03-02T15:18:13;99562.69;;;15.05;56.87
14117;BME280;7137;51.436;6.544;2024-03-02T15:21:14;99556.16;;;14.85;56.92
14117;BME280;7137;51.436;6.544;2024-03-02T15:24:16;99557.94;;;14.84;56.20
14117;BME280;7137;51.436;6.544;2024-03-02T15:27:17;99551.75;;;14.85;57.35
14117;BME280;7137;51.436;6.544;2024-03-02T15:30:19;99552.59;;;14.99;56.68
14117;BME280;7137;51.436;6.544;2024-03-02T15:33:22;99544.81;;;14.84;58.05
14117;BME280;7137;51.436;6.544;2024-03-02T15:36:25;99548.78;;;14.77;57.51
14117;BME280;7137;51.436;6.544;2024-03-02T15:39:27;99550.38;;;14.80;57.96
14117;BME280;7137;51.436;6.544;2024-03-02T15:42:28;99547.41;;;14.72;57.62
14117;BME280;7137;51.436;6.544;2024-03-02T15:45:30;99551.63;;;14.74;57.95
14117;BME280;7137;51.436;6.544;2024-03-02T15:48:35;99536.06;;;14.71;57.55
14117;BME280;7137;51.436;6.544;2024-03-02T15:51:37;99545.53;;;14.87;57.62
14117;BME280;7137;51.436;6.544;2024-03-02T15:54:40;99545.22;;;14.91;57.69
14117;BME280;7137;51.436;6.544;2024-03-02T15:57:44;99541.44;;;14.70;57.97
14117;BME280;7137;51.436;6.544;2024-03-02T16:00:45;99550.47;;;14.66;56.90
14117;BME280;7137;51.436;6.544;2024-03-02T16:03:48;99537.72;;;14.60;56.69
14117;BME280;7137;51.436;6.544;2024-03-02T16:06:50;99552.66;;;14.59;57.38
14117;BME280;7137;51.436;6.544;2024-03-02T16:09:51;99547.28;;;14.61;57.57
14117;BME280;7137;51.436;6.544;2024-03-02T16:12:53;99547.50;;;14.58;56.26
14117;BME280;7137;51.436;6.544;2024-03-02T16:15:56;99545.81;;;14.57;56.81
14117;BME280;7137;51.436;6.544;2024-03-02T16:18:58;99541.06;;;14.49;56.74
14117;BME280;7137;51.436;6.544;2024-03-02T16:22:00;99544.78;;;14.59;57.17
14117;BME280;7137;51.436;6.544;2024-03-02T16:25:02;99537.44;;;14.64;56.68
14117;BME280;7137;51.436;6.544;2024-03-02T16:28:05;99541.31;;;14.59;56.77